sensor_id;sensor_type;location;lat;lon;timestamp;P1;durP1;ratioP1;P2;durP2;ratioP2
19802;SDS011;66074;50.764;6.090;2023-02-21T00:02:08;26.75;;;20.35;;
19802;SDS011;66074;50.764;6.090;2023-02-21T00:04:53;23.75;;;20.00;;
19802;SDS011;66074;50.764;6.090;2023-02-21T00:07:37;26.10;;;20.40;;
19802;SDS011;66074;50.764;6.090;2023-02-21T00:10:22;26.70;;;22.02;;
19802;SDS011;66074;50.764;6.090;2023-02-21T00:13:06;24.95;;;20.50;;
19802;SDS011;66074;50.764;6.090;2023-02-21T00:15:50;25.00;;;20.85;;
19802;SDS011;66074;50.764;6.090;2023-02-21T00:18:35;27.20;;;20.48;;
19802;SDS011;66074;50.764;6.090;2023-02-21T00:21:20;23.55;;;20.85;;
19802;SDS011;66074;50.764;6.090;2023-02-21T00:24:04;24.85;;;19.02;;
19802;SDS011;66074;50.764;6.090;2023-02-21T00:26:49;24.25;;;20.35;;
19802;SDS011;66074;50.764;6.090;2023-02-21T00:29:33;23.02;;;20.42;;
19802;SDS011;66074;50.764;6.090;2023-02-21T00:32:17;23.58;;;19.85;;
19802;SDS011;66074;50.764;6.090;2023-02-21T00:35:01;24.10;;;18.85;;
19802;SDS011;66074;50.764;6.090;2023-02-21T00:37:48;24.75;;;19.88;;
19802;SDS011;66074;50.764;6.090;2023-02-21T00:40:33;23.70;;;19.80;;
19802;SDS011;66074;50.764;6.090;2023-02-21T00:43:17;23.85;;;19.35;;
19802;SDS011;66074;50.764;6.090;2023-02-21T00:46:02;25.13;;;20.40;;
19802;SDS011;66074;50.764;6.090;2023-02-21T00:48:46;24.02;;;19.27;;
19802;SDS011;66074;50.764;6.090;2023-02-21T00:51:30;25.58;;;20.40;;
19802;SDS011;66074;50.764;6.090;2023-02-21T00:54:14;23.92;;;19.35;;
19802;SDS011;66074;50.764;6.090;2023-02-21T00:56:59;23.17;;;19.80;;
19802;SDS011;66074;50.764;6.090;2023-02-21T00:59:43;23.05;;;19.40;;
19802;SDS011;66074;50.764;6.090;2023-02-21T01:02:27;24.25;;;19.70;;
19802;SDS011;66074;50.764;6.090;2023-02-21T01:05:11;22.05;;;18.83;;
19802;SDS011;66074;50.764;6.090;2023-02-21T01:07:55;24.42;;;18.50;;
19802;SDS011;66074;50.764;6.090;2023-02-21T01:10:39;22.55;;;19.10;;
19802;SDS011;66074;50.764;6.090;2023-02-21T01:13:23;21.23;;;17.85;;
19802;SDS011;66074;50.764;6.090;2023-02-21T01:16:07;21.10;;;17.38;;
19802;SDS011;66074;50.764;6.090;2023-02-21T01:18:51;21.77;;;18.27;;
19802;SDS011;66074;50.764;6.090;2023-02-21T01:21:36;21.23;;;18.17;;
19802;SDS011;66074;50.764;6.090;2023-02-21T01:24:20;21.58;;;17.50;;
19802;SDS011;66074;50.764;6.090;2023-02-21T01:27:04;20.55;;;17.30;;
19802;SDS011;66074;50.764;6.090;2023-02-21T01:29:48;20.92;;;18.42;;
19802;SDS011;66074;50.764;6.090;2023-02-21T01:32:32;18.90;;;16.17;;
19802;SDS011;66074;50.764;6.090;2023-02-21T01:35:16;21.52;;;17.90;;
19802;SDS011;66074;50.764;6.090;2023-02-21T01:38:00;21.20;;;17.58;;
19802;SDS011;66074;50.764;6.090;2023-02-21T01:40:44;21.17;;;16.38;;
19802;SDS011;66074;50.764;6.090;2023-02-21T01:43:28;20.45;;;16.80;;
19802;SDS011;66074;50.764;6.090;2023-02-21T01:46:13;20.55;;;16.88;;
19802;SDS011;66074;50.764;6.090;2023-02-21T01:49:01;20.45;;;16.90;;
19802;SDS011;66074;50.764;6.090;2023-02-21T01:52:00;19.50;;;16.90;;
19802;SDS011;66074;50.764;6.090;2023-02-21T01:54:48;22.83;;;17.33;;
19802;SDS011;66074;50.764;6.090;2023-02-21T01:57:34;21.70;;;16.98;;
19802;SDS011;66074;50.764;6.090;2023-02-21T02:00:20;20.70;;;16.27;;
19802;SDS011;66074;50.764;6.090;2023-02-21T02:03:05;22.90;;;16.10;;
19802;SDS011;66074;50.764;6.090;2023-02-21T02:05:53;20.70;;;17.38;;
19802;SDS011;66074;50.764;6.090;2023-02-21T02:08:41;20.48;;;16.63;;
19802;SDS011;66074;50.764;6.090;2023-02-21T02:35:13;19.77;;;17.35;;
19802;SDS011;66074;50.764;6.090;2023-02-21T02:41:02;17.45;;;15.43;;
19802;SDS011;66074;50.764;6.090;2023-02-21T02:43:49;18.42;;;16.33;;
19802;SDS011;66074;50.764;6.090;2023-02-21T02:46:21;18.23;;;16.33;;
19802;SDS011;66074;50.764;6.090;2023-02-21T02:48:53;20.85;;;17.17;;
19802;SDS011;66074;50.764;6.090;2023-02-21T02:51:22;19.35;;;16.88;;
19802;SDS011;66074;50.764;6.090;2023-02-21T02:53:49;19.35;;;17.35;;
19802;SDS011;66074;50.764;6.090;2023-02-21T02:56:15;20.65;;;17.67;;
19802;SDS011;66074;50.764;6.090;2023-02-21T02:58:55;20.55;;;17.42;;
19802;SDS011;66074;50.764;6.090;2023-02-21T03:06:57;20.60;;;18.20;;
19802;SDS011;66074;50.764;6.090;2023-02-21T03:18:26;19.25;;;16.05;;
19802;SDS011;66074;50.764;6.090;2023-02-21T03:21:08;20.10;;;17.52;;
19802;SDS011;66074;50.764;6.090;2023-02-21T03:23:40;22.70;;;17.35;;
19802;SDS011;66074;50.764;6.090;2023-02-21T03:26:08;22.05;;;17.80;;
19802;SDS011;66074;50.764;6.090;2023-02-21T03:28:36;20.60;;;16.70;;
19802;SDS011;66074;50.764;6.090;2023-02-21T03:31:02;21.85;;;17.33;;
19802;SDS011;66074;50.764;6.090;2023-02-21T03:33:31;20.52;;;17.80;;
19802;SDS011;66074;50.764;6.090;2023-02-21T03:35:58;20.10;;;16.88;;
19802;SDS011;66074;50.764;6.090;2023-02-21T03:38:26;20.73;;;17.63;;
19802;SDS011;66074;50.764;6.090;2023-02-21T03:40:53;21.55;;;18.23;;
19802;SDS011;66074;50.764;6.090;2023-02-21T03:43:19;20.48;;;18.35;;
19802;SDS011;66074;50.764;6.090;2023-02-21T03:45:44;20.63;;;18.52;;
19802;SDS011;66074;50.764;6.090;2023-02-21T03:48:10;22.73;;;17.88;;
19802;SDS011;66074;50.764;6.090;2023-02-21T03:50:36;19.63;;;17.45;;
19802;SDS011;66074;50.764;6.090;2023-02-21T03:53:01;20.25;;;16.88;;
19802;SDS011;66074;50.764;6.090;2023-02-21T03:55:27;20.58;;;17.95;;
19802;SDS011;66074;50.764;6.090;2023-02-21T03:57:53;24.67;;;18.30;;
19802;SDS011;66074;50.764;6.090;2023-02-21T04:00:19;23.73;;;19.42;;
19802;SDS011;66074;50.764;6.090;2023-02-21T04:02:44;21.85;;;18.67;;
19802;SDS011;66074;50.764;6.090;2023-02-21T04:05:10;22.50;;;19.10;;
19802;SDS011;66074;50.764;6.090;2023-02-21T04:07:36;24.48;;;18.58;;
19802;SDS011;66074;50.764;6.090;2023-02-21T04:10:01;23.10;;;19.27;;
19802;SDS011;66074;50.764;6.090;2023-02-21T04:12:27;22.85;;;19.75;;
19802;SDS011;66074;50.764;6.090;2023-02-21T04:14:53;26.15;;;21.52;;
19802;SDS011;66074;50.764;6.090;2023-02-21T04:17:20;25.67;;;20.52;;
19802;SDS011;66074;50.764;6.090;2023-02-21T04:19:46;24.23;;;19.83;;
19802;SDS011;66074;50.764;6.090;2023-02-21T04:22:12;23.80;;;19.38;;
19802;SDS011;66074;50.764;6.090;2023-02-21T04:24:37;24.17;;;19.25;;
19802;SDS011;66074;50.764;6.090;2023-02-21T04:27:03;26.35;;;20.95;;
19802;SDS011;66074;50.764;6.090;2023-02-21T04:29:28;22.75;;;19.10;;
19802;SDS011;66074;50.764;6.090;2023-02-21T04:31:54;24.02;;;20.55;;
19802;SDS011;66074;50.764;6.090;2023-02-21T04:34:20;24.73;;;19.40;;
19802;SDS011;66074;50.764;6.090;2023-02-21T04:36:45;23.88;;;19.38;;
19802;SDS011;66074;50.764;6.090;2023-02-21T04:39:11;23.27;;;19.98;;
19802;SDS011;66074;50.764;6.090;2023-02-21T04:41:37;24.48;;;20.48;;
19802;SDS011;66074;50.764;6.090;2023-02-21T04:44:02;24.85;;;19.88;;
19802;SDS011;66074;50.764;6.090;2023-02-21T04:46:28;24.27;;;20.05;;
19802;SDS011;66074;50.764;6.090;2023-02-21T04:48:53;22.45;;;19.27;;
19802;SDS011;66074;50.764;6.090;2023-02-21T04:51:20;22.60;;;18.70;;
19802;SDS011;66074;50.764;6.090;2023-02-21T04:53:48;22.02;;;19.10;;
19802;SDS011;66074;50.764;6.090;2023-02-21T04:56:14;18.63;;;16.55;;
19802;SDS011;66074;50.764;6.090;2023-02-21T04:58:43;22.88;;;18.50;;
19802;SDS011;66074;50.764;6.090;2023-02-21T05:01:09;19.70;;;16.70;;
19802;SDS011;66074;50.764;6.090;2023-02-21T05:03:36;19.98;;;16.67;;
19802;SDS011;66074;50.764;6.090;2023-02-21T05:06:01;20.50;;;17.33;;
19802;SDS011;66074;50.764;6.090;2023-02-21T05:08:27;17.58;;;15.05;;
19802;SDS011;66074;50.764;6.090;2023-02-21T05:10:53;17.45;;;15.65;;
19802;SDS011;66074;50.764;6.090;2023-02-21T05:13:19;18.83;;;16.83;;
19802;SDS011;66074;50.764;6.090;2023-02-21T05:15:45;21.58;;;16.27;;
19802;SDS011;66074;50.764;6.090;2023-02-21T05:18:11;19.73;;;17.23;;
19802;SDS011;66074;50.764;6.090;2023-02-21T05:20:37;20.08;;;17.48;;
19802;SDS011;66074;50.764;6.090;2023-02-21T05:23:02;18.75;;;16.63;;
19802;SDS011;66074;50.764;6.090;2023-02-21T05:25:28;19.90;;;16.48;;
19802;SDS011;66074;50.764;6.090;2023-02-21T05:27:53;18.45;;;16.45;;
19802;SDS011;66074;50.764;6.090;2023-02-21T05:30:20;18.80;;;16.75;;
19802;SDS011;66074;50.764;6.090;2023-02-21T05:32:48;19.98;;;17.25;;
19802;SDS011;66074;50.764;6.090;2023-02-21T05:35:14;21.88;;;18.48;;
19802;SDS011;66074;50.764;6.090;2023-02-21T05:37:40;19.20;;;15.80;;
19802;SDS011;66074;50.764;6.090;2023-02-21T05:40:06;20.42;;;17.95;;
19802;SDS011;66074;50.764;6.090;2023-02-21T05:42:33;19.95;;;17.85;;
19802;SDS011;66074;50.764;6.090;2023-02-21T05:44:59;20.67;;;17.10;;
19802;SDS011;66074;50.764;6.090;2023-02-21T05:47:26;20.48;;;18.10;;
19802;SDS011;66074;50.764;6.090;2023-02-21T05:49:51;23.38;;;18.63;;
19802;SDS011;66074;50.764;6.090;2023-02-21T05:52:17;20.65;;;17.55;;
19802;SDS011;66074;50.764;6.090;2023-02-21T05:54:43;22.95;;;19.92;;
19802;SDS011;66074;50.764;6.090;2023-02-21T05:57:09;23.40;;;19.40;;
19802;SDS011;66074;50.764;6.090;2023-02-21T05:59:35;22.27;;;19.33;;
19802;SDS011;66074;50.764;6.090;2023-02-21T06:02:01;20.92;;;18.52;;
19802;SDS011;66074;50.764;6.090;2023-02-21T06:04:27;23.88;;;21.05;;
19802;SDS011;66074;50.764;6.090;2023-02-21T06:06:53;22.98;;;18.63;;
19802;SDS011;66074;50.764;6.090;2023-02-21T06:09:19;22.13;;;18.38;;
19802;SDS011;66074;50.764;6.090;2023-02-21T06:11:44;21.92;;;17.90;;
19802;SDS011;66074;50.764;6.090;2023-02-21T06:14:15;21.80;;;18.95;;
19802;SDS011;66074;50.764;6.090;2023-02-21T06:16:44;21.35;;;18.13;;
19802;SDS011;66074;50.764;6.090;2023-02-21T06:19:11;21.20;;;18.48;;
19802;SDS011;66074;50.764;6.090;2023-02-21T06:21:38;20.67;;;17.50;;
19802;SDS011;66074;50.764;6.090;2023-02-21T06:24:06;20.52;;;18.08;;
19802;SDS011;66074;50.764;6.090;2023-02-21T06:26:32;23.37;;;19.40;;
19802;SDS011;66074;50.764;6.090;2023-02-21T06:28:58;22.45;;;17.52;;
19802;SDS011;66074;50.764;6.090;2023-02-21T06:31:23;21.92;;;18.17;;
19802;SDS011;66074;50.764;6.090;2023-02-21T06:33:49;20.77;;;17.10;;
19802;SDS011;66074;50.764;6.090;2023-02-21T06:36:19;22.42;;;18.80;;
19802;SDS011;66074;50.764;6.090;2023-02-21T06:38:47;24.98;;;19.88;;
19802;SDS011;66074;50.764;6.090;2023-02-21T06:41:16;20.33;;;17.73;;
19802;SDS011;66074;50.764;6.090;2023-02-21T06:43:43;20.95;;;18.33;;
19802;SDS011;66074;50.764;6.090;2023-02-21T06:46:09;22.10;;;19.33;;
19802;SDS011;66074;50.764;6.090;2023-02-21T06:48:39;21.63;;;18.25;;
19802;SDS011;66074;50.764;6.090;2023-02-21T06:51:05;21.98;;;18.30;;
19802;SDS011;66074;50.764;6.090;2023-02-21T06:53:34;21.98;;;17.08;;
19802;SDS011;66074;50.764;6.090;2023-02-21T06:55:59;19.50;;;16.50;;
19802;SDS011;66074;50.764;6.090;2023-02-21T06:58:25;20.23;;;17.50;;
19802;SDS011;66074;50.764;6.090;2023-02-21T07:00:50;20.02;;;17.60;;
19802;SDS011;66074;50.764;6.090;2023-02-21T07:03:16;20.05;;;17.88;;
19802;SDS011;66074;50.764;6.090;2023-02-21T07:05:42;21.00;;;18.27;;
19802;SDS011;66074;50.764;6.090;2023-02-21T07:08:07;20.13;;;17.50;;
19802;SDS011;66074;50.764;6.090;2023-02-21T07:10:33;23.15;;;18.00;;
19802;SDS011;66074;50.764;6.090;2023-02-21T07:12:59;19.20;;;16.55;;
19802;SDS011;66074;50.764;6.090;2023-02-21T07:15:24;22.20;;;18.73;;
19802;SDS011;66074;50.764;6.090;2023-02-21T07:17:50;20.00;;;17.60;;
19802;SDS011;66074;50.764;6.090;2023-02-21T07:20:16;23.10;;;17.55;;
19802;SDS011;66074;50.764;6.090;2023-02-21T07:22:42;20.15;;;17.95;;
19802;SDS011;66074;50.764;6.090;2023-02-21T07:25:07;20.05;;;17.10;;
19802;SDS011;66074;50.764;6.090;2023-02-21T07:27:37;23.20;;;19.13;;
19802;SDS011;66074;50.764;6.090;2023-02-21T07:30:03;20.60;;;17.52;;
19802;SDS011;66074;50.764;6.090;2023-02-21T07:32:29;22.90;;;19.73;;
19802;SDS011;66074;50.764;6.090;2023-02-21T07:34:55;20.58;;;18.38;;
19802;SDS011;66074;50.764;6.090;2023-02-21T07:37:21;22.40;;;18.70;;
19802;SDS011;66074;50.764;6.090;2023-02-21T07:39:46;21.85;;;17.88;;
19802;SDS011;66074;50.764;6.090;2023-02-21T07:42:12;21.40;;;17.67;;
19802;SDS011;66074;50.764;6.090;2023-02-21T07:44:37;24.10;;;18.27;;
19802;SDS011;66074;50.764;6.090;2023-02-21T07:47:03;22.48;;;18.17;;
19802;SDS011;66074;50.764;6.090;2023-02-21T07:49:29;20.45;;;17.63;;
19802;SDS011;66074;50.764;6.090;2023-02-21T07:51:54;22.25;;;19.13;;
19802;SDS011;66074;50.764;6.090;2023-02-21T07:54:20;22.45;;;18.08;;
19802;SDS011;66074;50.764;6.090;2023-02-21T07:56:47;22.17;;;18.63;;
19802;SDS011;66074;50.764;6.090;2023-02-21T07:59:13;20.40;;;17.95;;
19802;SDS011;66074;50.764;6.090;2023-02-21T08:01:40;23.42;;;18.58;;
19802;SDS011;66074;50.764;6.090;2023-02-21T08:04:06;22.23;;;18.40;;
19802;SDS011;66074;50.764;6.090;2023-02-21T08:06:34;21.90;;;17.05;;
19802;SDS011;66074;50.764;6.090;2023-02-21T08:09:00;24.17;;;16.80;;
19802;SDS011;66074;50.764;6.090;2023-02-21T08:11:26;19.67;;;16.45;;
19802;SDS011;66074;50.764;6.090;2023-02-21T08:13:51;17.85;;;15.35;;
19802;SDS011;66074;50.764;6.090;2023-02-21T08:16:17;20.20;;;17.35;;
19802;SDS011;66074;50.764;6.090;2023-02-21T08:18:42;17.50;;;15.52;;
19802;SDS011;66074;50.764;6.090;2023-02-21T08:21:11;19.75;;;16.58;;
19802;SDS011;66074;50.764;6.090;2023-02-21T08:23:37;18.45;;;15.57;;
19802;SDS011;66074;50.764;6.090;2023-02-21T08:26:03;17.08;;;15.05;;
19802;SDS011;66074;50.764;6.090;2023-02-21T08:28:29;18.35;;;15.90;;
19802;SDS011;66074;50.764;6.090;2023-02-21T08:30:55;19.02;;;16.13;;
19802;SDS011;66074;50.764;6.090;2023-02-21T08:33:20;18.92;;;16.42;;
19802;SDS011;66074;50.764;6.090;2023-02-21T08:35:46;18.73;;;16.45;;
19802;SDS011;66074;50.764;6.090;2023-02-21T08:38:12;21.25;;;17.50;;
19802;SDS011;66074;50.764;6.090;2023-02-21T08:40:38;21.52;;;17.27;;
19802;SDS011;66074;50.764;6.090;2023-02-21T08:43:03;20.00;;;16.83;;
19802;SDS011;66074;50.764;6.090;2023-02-21T08:45:30;19.63;;;16.98;;
19802;SDS011;66074;50.764;6.090;2023-02-21T08:47:56;21.02;;;18.38;;
19802;SDS011;66074;50.764;6.090;2023-02-21T08:50:22;22.40;;;18.05;;
19802;SDS011;66074;50.764;6.090;2023-02-21T08:52:49;23.98;;;18.05;;
19802;SDS011;66074;50.764;6.090;2023-02-21T08:55:16;21.90;;;18.42;;
19802;SDS011;66074;50.764;6.090;2023-02-21T08:57:43;21.33;;;17.88;;
19802;SDS011;66074;50.764;6.090;2023-02-21T09:00:09;20.15;;;17.80;;
19802;SDS011;66074;50.764;6.090;2023-02-21T09:02:37;23.40;;;19.92;;
19802;SDS011;66074;50.764;6.090;2023-02-21T09:10:55;20.55;;;17.73;;
19802;SDS011;66074;50.764;6.090;2023-02-21T09:13:27;20.45;;;18.33;;
19802;SDS011;66074;50.764;6.090;2023-02-21T09:15:54;22.92;;;19.90;;
19802;SDS011;66074;50.764;6.090;2023-02-21T09:18:21;19.70;;;17.35;;
19802;SDS011;66074;50.764;6.090;2023-02-21T09:20:47;20.17;;;17.95;;
19802;SDS011;66074;50.764;6.090;2023-02-21T09:23:18;23.13;;;17.80;;
19802;SDS011;66074;50.764;6.090;2023-02-21T09:25:45;20.85;;;18.42;;
19802;SDS011;66074;50.764;6.090;2023-02-21T09:28:12;20.90;;;18.42;;
19802;SDS011;66074;50.764;6.090;2023-02-21T09:30:39;21.08;;;18.63;;
19802;SDS011;66074;50.764;6.090;2023-02-21T09:33:05;23.33;;;18.88;;
19802;SDS011;66074;50.764;6.090;2023-02-21T09:35:31;22.90;;;19.38;;
19802;SDS011;66074;50.764;6.090;2023-02-21T09:37:57;22.20;;;19.20;;
19802;SDS011;66074;50.764;6.090;2023-02-21T09:40:35;23.08;;;19.80;;
19802;SDS011;66074;50.764;6.090;2023-02-21T09:43:01;27.45;;;23.05;;
19802;SDS011;66074;50.764;6.090;2023-02-21T09:45:31;29.50;;;22.58;;
19802;SDS011;66074;50.764;6.090;2023-02-21T09:48:00;27.58;;;23.30;;
19802;SDS011;66074;50.764;6.090;2023-02-21T09:50:32;25.63;;;22.23;;
19802;SDS011;66074;50.764;6.090;2023-02-21T09:53:04;27.42;;;22.98;;
19802;SDS011;66074;50.764;6.090;2023-02-21T09:55:37;26.70;;;21.90;;
19802;SDS011;66074;50.764;6.090;2023-02-21T09:58:05;27.05;;;22.85;;
19802;SDS011;66074;50.764;6.090;2023-02-21T10:00:37;29.10;;;24.88;;
19802;SDS011;66074;50.764;6.090;2023-02-21T10:03:19;26.15;;;21.40;;
19802;SDS011;66074;50.764;6.090;2023-02-21T10:06:03;26.20;;;21.65;;
19802;SDS011;66074;50.764;6.090;2023-02-21T10:08:53;25.83;;;20.90;;
19802;SDS011;66074;50.764;6.090;2023-02-21T10:19:31;26.58;;;21.40;;
19802;SDS011;66074;50.764;6.090;2023-02-21T10:22:02;27.42;;;24.27;;
19802;SDS011;66074;50.764;6.090;2023-02-21T10:24:43;28.77;;;23.30;;
19802;SDS011;66074;50.764;6.090;2023-02-21T10:27:14;23.67;;;21.15;;
19802;SDS011;66074;50.764;6.090;2023-02-21T10:29:44;24.70;;;21.42;;
19802;SDS011;66074;50.764;6.090;2023-02-21T10:32:21;27.42;;;22.25;;
19802;SDS011;66074;50.764;6.090;2023-02-21T10:34:48;25.98;;;22.67;;
19802;SDS011;66074;50.764;6.090;2023-02-21T10:39:50;26.00;;;22.25;;
19802;SDS011;66074;50.764;6.090;2023-02-21T10:42:30;24.80;;;21.55;;
19802;SDS011;66074;50.764;6.090;2023-02-21T10:45:00;25.75;;;22.38;;
19802;SDS011;66074;50.764;6.090;2023-02-21T10:47:44;25.70;;;22.50;;
19802;SDS011;66074;50.764;6.090;2023-02-21T10:53:22;26.17;;;20.75;;
19802;SDS011;66074;50.764;6.090;2023-02-21T10:58:32;24.98;;;21.60;;
19802;SDS011;66074;50.764;6.090;2023-02-21T11:01:09;23.95;;;20.50;;
19802;SDS011;66074;50.764;6.090;2023-02-21T11:03:47;23.27;;;20.23;;
19802;SDS011;66074;50.764;6.090;2023-02-21T11:11:48;23.98;;;20.45;;
19802;SDS011;66074;50.764;6.090;2023-02-21T11:14:25;23.58;;;21.10;;
19802;SDS011;66074;50.764;6.090;2023-02-21T11:19:28;22.52;;;19.88;;
19802;SDS011;66074;50.764;6.090;2023-02-21T11:22:17;22.45;;;20.15;;
19802;SDS011;66074;50.764;6.090;2023-02-21T11:24:46;20.70;;;18.17;;
19802;SDS011;66074;50.764;6.090;2023-02-21T11:27:23;22.50;;;18.23;;
19802;SDS011;66074;50.764;6.090;2023-02-21T11:29:50;20.42;;;18.33;;
19802;SDS011;66074;50.764;6.090;2023-02-21T11:32:26;21.30;;;18.98;;
19802;SDS011;66074;50.764;6.090;2023-02-21T11:35:07;18.90;;;16.88;;
19802;SDS011;66074;50.764;6.090;2023-02-21T11:37:56;21.10;;;18.40;;
19802;SDS011;66074;50.764;6.090;2023-02-21T11:40:29;19.45;;;16.92;;
19802;SDS011;66074;50.764;6.090;2023-02-21T11:45:49;18.58;;;16.63;;
19802;SDS011;66074;50.764;6.090;2023-02-21T11:48:24;19.17;;;16.58;;
19802;SDS011;66074;50.764;6.090;2023-02-21T11:50:56;19.60;;;17.60;;
19802;SDS011;66074;50.764;6.090;2023-02-21T11:53:31;20.42;;;18.23;;
19802;SDS011;66074;50.764;6.090;2023-02-21T11:56:20;18.75;;;16.55;;
19802;SDS011;66074;50.764;6.090;2023-02-21T11:59:21;16.35;;;14.65;;
19802;SDS011;66074;50.764;6.090;2023-02-21T12:07:07;15.00;;;13.60;;
19802;SDS011;66074;50.764;6.090;2023-02-21T12:12:36;15.38;;;13.38;;
19802;SDS011;66074;50.764;6.090;2023-02-21T12:26:17;22.48;;;20.08;;
19802;SDS011;66074;50.764;6.090;2023-02-21T12:31:42;21.58;;;18.88;;
19802;SDS011;66074;50.764;6.090;2023-02-21T12:40:18;24.95;;;21.52;;
19802;SDS011;66074;50.764;6.090;2023-02-21T12:42:51;22.45;;;20.05;;
19802;SDS011;66074;50.764;6.090;2023-02-21T12:46:04;23.65;;;21.13;;
19802;SDS011;66074;50.764;6.090;2023-02-21T12:48:48;25.60;;;22.45;;
19802;SDS011;66074;50.764;6.090;2023-02-21T12:51:20;23.38;;;20.88;;
19802;SDS011;66074;50.764;6.090;2023-02-21T12:54:12;24.08;;;21.58;;
19802;SDS011;66074;50.764;6.090;2023-02-21T12:56:43;24.13;;;21.58;;
19802;SDS011;66074;50.764;6.090;2023-02-21T12:59:18;23.83;;;21.40;;
19802;SDS011;66074;50.764;6.090;2023-02-21T13:01:48;25.02;;;22.38;;
19802;SDS011;66074;50.764;6.090;2023-02-21T13:09:42;24.05;;;21.55;;
19802;SDS011;66074;50.764;6.090;2023-02-21T13:15:12;24.80;;;21.23;;
19802;SDS011;66074;50.764;6.090;2023-02-21T13:17:43;24.70;;;22.13;;
19802;SDS011;66074;50.764;6.090;2023-02-21T13:20:29;23.38;;;20.98;;
19802;SDS011;66074;50.764;6.090;2023-02-21T13:23:37;22.73;;;20.27;;
19802;SDS011;66074;50.764;6.090;2023-02-21T13:29:12;22.90;;;20.27;;
19802;SDS011;66074;50.764;6.090;2023-02-21T13:31:58;26.02;;;23.23;;
19802;SDS011;66074;50.764;6.090;2023-02-21T13:34:27;22.92;;;20.52;;
19802;SDS011;66074;50.764;6.090;2023-02-21T13:36:59;23.83;;;21.33;;
19802;SDS011;66074;50.764;6.090;2023-02-21T13:39:27;22.40;;;20.00;;
19802;SDS011;66074;50.764;6.090;2023-02-21T13:44:51;24.92;;;22.23;;
19802;SDS011;66074;50.764;6.090;2023-02-21T13:53:20;23.30;;;21.00;;
19802;SDS011;66074;50.764;6.090;2023-02-21T13:56:32;23.75;;;21.35;;
19802;SDS011;66074;50.764;6.090;2023-02-21T13:58:34;25.52;;;22.35;;
19802;SDS011;66074;50.764;6.090;2023-02-21T14:01:17;24.98;;;22.48;;
19802;SDS011;66074;50.764;6.090;2023-02-21T14:03:52;25.50;;;22.83;;
19802;SDS011;66074;50.764;6.090;2023-02-21T14:11:49;24.20;;;21.75;;
19802;SDS011;66074;50.764;6.090;2023-02-21T14:14:22;24.10;;;21.80;;
19802;SDS011;66074;50.764;6.090;2023-02-21T14:17:03;23.13;;;20.83;;
19802;SDS011;66074;50.764;6.090;2023-02-21T14:19:33;25.38;;;21.98;;
19802;SDS011;66074;50.764;6.090;2023-02-21T14:22:14;23.55;;;21.25;;
19802;SDS011;66074;50.764;6.090;2023-02-21T14:24:44;24.52;;;22.13;;
19802;SDS011;66074;50.764;6.090;2023-02-21T14:29:42;24.35;;;21.90;;
19802;SDS011;66074;50.764;6.090;2023-02-21T14:34:36;24.77;;;22.30;;
19802;SDS011;66074;50.764;6.090;2023-02-21T14:37:05;23.65;;;21.33;;
19802;SDS011;66074;50.764;6.090;2023-02-21T14:39:54;23.33;;;20.92;;
19802;SDS011;66074;50.764;6.090;2023-02-21T15:03:40;24.13;;;21.63;;
19802;SDS011;66074;50.764;6.090;2023-02-21T15:06:17;25.40;;;22.80;;
19802;SDS011;66074;50.764;6.090;2023-02-21T15:08:45;25.17;;;22.63;;
19802;SDS011;66074;50.764;6.090;2023-02-21T15:14:10;27.15;;;23.25;;
19802;SDS011;66074;50.764;6.090;2023-02-21T15:16:37;24.00;;;21.52;;
19802;SDS011;66074;50.764;6.090;2023-02-21T15:19:28;23.40;;;20.90;;
19802;SDS011;66074;50.764;6.090;2023-02-21T15:22:15;26.45;;;22.33;;
19802;SDS011;66074;50.764;6.090;2023-02-21T15:24:59;24.70;;;22.20;;
19802;SDS011;66074;50.764;6.090;2023-02-21T15:27:33;26.48;;;23.30;;
19802;SDS011;66074;50.764;6.090;2023-02-21T15:30:07;25.55;;;21.60;;
19802;SDS011;66074;50.764;6.090;2023-02-21T15:32:39;23.88;;;21.40;;
19802;SDS011;66074;50.764;6.090;2023-02-21T15:35:05;24.40;;;21.25;;
19802;SDS011;66074;50.764;6.090;2023-02-21T15:37:36;24.20;;;20.25;;
19802;SDS011;66074;50.764;6.090;2023-02-21T15:40:05;24.95;;;22.25;;
19802;SDS011;66074;50.764;6.090;2023-02-21T15:42:39;26.40;;;22.98;;
19802;SDS011;66074;50.764;6.090;2023-02-21T15:45:06;24.92;;;22.08;;
19802;SDS011;66074;50.764;6.090;2023-02-21T15:47:40;25.30;;;22.60;;
19802;SDS011;66074;50.764;6.090;2023-02-21T15:50:12;24.05;;;21.52;;
19802;SDS011;66074;50.764;6.090;2023-02-21T15:52:43;24.08;;;21.58;;
19802;SDS011;66074;50.764;6.090;2023-02-21T15:58:29;24.15;;;21.52;;
19802;SDS011;66074;50.764;6.090;2023-02-21T16:00:33;22.40;;;20.05;;
19802;SDS011;66074;50.764;6.090;2023-02-21T16:09:02;22.85;;;19.48;;
19802;SDS011;66074;50.764;6.090;2023-02-21T16:11:45;23.25;;;20.75;;
19802;SDS011;66074;50.764;6.090;2023-02-21T16:14:53;22.40;;;20.10;;
19802;SDS011;66074;50.764;6.090;2023-02-21T16:17:26;22.67;;;20.05;;
19802;SDS011;66074;50.764;6.090;2023-02-21T16:19:56;22.40;;;20.00;;
19802;SDS011;66074;50.764;6.090;2023-02-21T16:22:37;22.45;;;19.23;;
19802;SDS011;66074;50.764;6.090;2023-02-21T16:27:39;24.30;;;19.83;;
19802;SDS011;66074;50.764;6.090;2023-02-21T16:30:10;22.80;;;20.40;;
19802;SDS011;66074;50.764;6.090;2023-02-21T16:32:40;26.95;;;23.65;;
19802;SDS011;66074;50.764;6.090;2023-02-21T16:35:11;23.42;;;20.85;;
19802;SDS011;66074;50.764;6.090;2023-02-21T16:37:38;21.48;;;19.23;;
19802;SDS011;66074;50.764;6.090;2023-02-21T16:40:10;24.38;;;21.77;;
19802;SDS011;66074;50.764;6.090;2023-02-21T16:42:37;22.80;;;19.90;;
19802;SDS011;66074;50.764;6.090;2023-02-21T16:45:03;24.13;;;21.52;;
19802;SDS011;66074;50.764;6.090;2023-02-21T16:47:28;23.10;;;19.60;;
19802;SDS011;66074;50.764;6.090;2023-02-21T16:49:54;23.55;;;20.02;;
19802;SDS011;66074;50.764;6.090;2023-02-21T16:52:20;21.83;;;19.45;;
19802;SDS011;66074;50.764;6.090;2023-02-21T16:54:45;23.60;;;20.27;;
19802;SDS011;66074;50.764;6.090;2023-02-21T16:57:11;22.15;;;19.63;;
19802;SDS011;66074;50.764;6.090;2023-02-21T16:59:36;23.80;;;21.27;;
19802;SDS011;66074;50.764;6.090;2023-02-21T17:02:02;26.17;;;21.75;;
19802;SDS011;66074;50.764;6.090;2023-02-21T17:04:29;21.65;;;19.30;;
19802;SDS011;66074;50.764;6.090;2023-02-21T17:06:56;22.70;;;19.98;;
19802;SDS011;66074;50.764;6.090;2023-02-21T17:09:25;22.08;;;19.77;;
19802;SDS011;66074;50.764;6.090;2023-02-21T17:11:53;21.60;;;19.33;;
19802;SDS011;66074;50.764;6.090;2023-02-21T17:14:19;24.30;;;19.33;;
19802;SDS011;66074;50.764;6.090;2023-02-21T17:16:45;20.02;;;17.65;;
19802;SDS011;66074;50.764;6.090;2023-02-21T17:19:12;20.23;;;18.02;;
19802;SDS011;66074;50.764;6.090;2023-02-21T17:21:39;21.38;;;18.83;;
19802;SDS011;66074;50.764;6.090;2023-02-21T17:24:05;19.55;;;17.42;;
19802;SDS011;66074;50.764;6.090;2023-02-21T17:26:31;21.80;;;18.02;;
19802;SDS011;66074;50.764;6.090;2023-02-21T17:28:57;23.83;;;20.02;;
19802;SDS011;66074;50.764;6.090;2023-02-21T17:31:22;23.60;;;18.63;;
19802;SDS011;66074;50.764;6.090;2023-02-21T17:33:48;21.45;;;17.30;;
19802;SDS011;66074;50.764;6.090;2023-02-21T17:36:17;20.25;;;17.90;;
19802;SDS011;66074;50.764;6.090;2023-02-21T17:38:43;20.88;;;18.48;;